createdAt,value
2023-05-25T14:42:28.196Z,28.3203125
2023-05-25T14:43:29.931Z,28.20953369
2023-05-25T14:44:30.746Z,27.50457764
2023-05-25T14:45:32.312Z,27.0211792
2023-05-25T14:46:33.233Z,26.59820557
2023-05-25T14:47:35.049Z,26.13494873
2023-05-25T14:48:35.939Z,25.83282471
2023-05-25T14:49:37.519Z,25.67169189
2023-05-25T14:50:39.342Z,25.60119629
2023-05-25T14:51:40.238Z,25.46020508
2023-05-25T14:53:11.681Z,25.53070068
2023-05-25T14:54:12.481Z,25.54077148
2023-05-25T14:55:13.706Z,25.53070068
2023-05-25T14:56:14.477Z,25.49041748
2023-05-25T14:57:15.968Z,25.51055908
2023-05-25T14:58:16.929Z,25.59112549
2023-05-25T14:59:18.472Z,25.6918335
2023-05-25T15:00:19.907Z,25.82275391
2023-05-25T15:01:21.940Z,25.91339111
2023-05-25T15:02:21.809Z,26.11480713
2023-05-25T15:03:24.068Z,26.33636475
2023-05-25T15:04:24.007Z,26.58813477
2023-05-25T15:05:25.447Z,26.82983398
2023-05-25T15:06:26.908Z,26.9708252
2023-05-25T15:07:27.802Z,27.16217041
2023-05-25T15:08:28.789Z,27.33337402
2023-05-25T15:09:29.733Z,27.38372803
2023-05-25T15:10:31.314Z,27.49450684
2023-05-25T15:11:32.111Z,27.49450684
2023-05-25T15:12:33.442Z,27.62542725
2023-05-25T15:13:35.005Z,27.50457764
2023-05-25T15:14:36.488Z,27.33337402
2023-05-25T15:15:37.472Z,26.980896
2023-05-25T15:16:38.390Z,26.86004639
2023-05-25T15:17:39.892Z,26.68884277
2023-05-25T15:19:13.287Z,26.63848877
2023-05-25T15:20:43.721Z,27.11181641
2023-05-25T15:22:14.825Z,27.53479004
2023-05-25T15:23:15.633Z,27.92755127
2023-05-25T15:24:17.516Z,28.22967529
2023-05-25T15:25:24.454Z,28.62243652
2023-05-25T15:26:20.571Z,29.01519775
2023-05-25T15:27:21.870Z,29.44824219
2023-05-25T15:28:23.236Z,29.88128662
2023-05-25T15:29:25.101Z,30.23376465
2023-05-25T15:30:28.026Z,30.58624268
2023-05-25T15:31:29.357Z,30.9286499
2023-05-25T15:32:30.275Z,31.27105713
2023-05-25T15:33:48.332Z,31.49261475
2023-05-25T15:34:33.101Z,31.40197754
2023-05-25T15:35:34.200Z,31.25091553
2023-05-25T15:36:35.523Z,30.9085083
2023-05-25T15:37:37.536Z,30.44525146
2023-05-25T15:38:38.413Z,30.19348145
2023-05-25T15:39:39.199Z,30.04241943
2023-05-25T15:41:11.155Z,29.74029541
2023-05-25T15:42:12.453Z,29.51873779
2023-05-25T15:43:13.716Z,29.26696777
2023-05-25T15:44:15.437Z,29.06555176
2023-05-25T15:45:16.677Z,28.87420654
2023-05-25T15:46:17.398Z,28.79364014
2023-05-25T15:47:18.964Z,28.87420654
2023-05-25T15:48:19.877Z,28.74328613
2023-05-25T15:49:20.647Z,28.89434814
2023-05-25T15:50:22.482Z,29.36767578
2023-05-25T15:51:23.248Z,29.73022461
2023-05-25T15:52:24.893Z,30.15319824
2023-05-25T15:53:25.722Z,30.77758789
2023-05-25T15:54:26.519Z,31.34155273
2023-05-25T15:55:27.247Z,30.8984375
2023-05-25T15:56:28.015Z,31.13006592
2023-05-25T15:57:28.792Z,31.54296875
2023-05-25T15:58:29.571Z,31.83502197
2023-05-25T15:59:31.342Z,31.78466797
2023-05-25T16:00:32.972Z,32.06665039
2023-05-25T16:01:33.744Z,32.38891602
2023-05-25T16:02:35.454Z,32.27813721
2023-05-25T16:03:36.319Z,31.50268555
2023-05-25T16:04:37.064Z,30.97900391
2023-05-25T16:05:37.918Z,30.55603027
2023-05-25T16:06:38.677Z,30.23376465
2023-05-25T16:07:40.426Z,30.21362305
2023-05-25T16:09:11.555Z,30.58624268
2023-05-25T16:10:12.284Z,30.69702148
2023-05-25T16:11:13.859Z,30.47546387
2023-05-25T16:12:14.544Z,30.50567627
2023-05-25T16:13:15.940Z,30.8782959
2023-05-25T16:14:17.426Z,31.06964111
2023-05-25T16:15:18.215Z,31.35162354
2023-05-25T16:16:19.074Z,31.62353516
2023-05-25T16:17:20.548Z,31.83502197
2023-05-25T16:18:21.188Z,32.08679199
2023-05-25T16:19:21.972Z,32.26806641
2023-05-25T16:20:23.432Z,32.42919922
2023-05-25T16:21:24.125Z,32.35870361
2023-05-25T16:22:24.837Z,32.34863281
2023-05-25T16:23:26.414Z,32.237854
2023-05-25T16:24:27.314Z,32.08679199
2023-05-25T16:25:28.811Z,31.87530518
2023-05-25T16:26:29.551Z,31.59332275
2023-05-25T16:27:30.360Z,31.38183594
2023-05-25T16:28:31.029Z,31.04949951
2023-05-25T16:29:32.261Z,30.82794189
2023-05-25T16:30:33.919Z,30.62652588
2023-05-25T16:31:34.793Z,30.65673828
2023-05-25T16:32:35.443Z,30.63659668
2023-05-25T16:33:36.184Z,30.59631348
2023-05-25T16:34:37.014Z,30.34454346
2023-05-25T16:35:37.753Z,30.16326904
2023-05-25T16:36:38.504Z,29.6395874
2023-05-25T16:38:10.783Z,29.28710938
2023-05-25T16:39:11.497Z,29.01519775
2023-05-25T16:40:12.275Z,28.80371094
2023-05-25T16:41:13.913Z,28.54187012
2023-05-25T16:42:14.680Z,28.3303833
2023-05-25T16:43:15.375Z,28.05847168
2023-05-25T16:44:16.929Z,27.85705566
2023-05-25T16:45:18.442Z,27.50457764
2023-05-25T16:46:19.252Z,27.20245361
2023-05-25T16:47:21.472Z,26.90032959
2023-05-25T16:48:23.248Z,26.71905518
2023-05-25T16:49:22.946Z,26.50756836
2023-05-25T16:50:23.677Z,26.28601074
2023-05-25T16:51:24.423Z,26.12487793
2023-05-25T16:52:25.273Z,25.96374512
2023-05-25T16:53:25.988Z,25.90332031
2023-05-25T16:54:26.810Z,25.82275391
2023-05-25T16:55:27.613Z,25.6918335
2023-05-25T16:56:29.589Z,25.63140869
2023-05-25T16:57:31.003Z,25.54077148
2023-05-25T16:58:31.747Z,25.48034668
2023-05-25T16:59:32.503Z,25.44006348
2023-05-25T17:00:33.290Z,25.30914307
2023-05-25T17:01:34.884Z,25.18829346
2023-05-25T17:02:36.548Z,25.07751465
2023-05-25T17:03:37.291Z,25.00701904
2023-05-25T17:04:37.906Z,24.82574463
2023-05-25T17:05:39.070Z,24.67468262
2023-05-25T17:07:11.200Z,24.59411621
2023-05-25T17:08:12.968Z,24.4833374
2023-05-25T17:09:13.702Z,24.3927002
2023-05-25T17:10:14.520Z,24.30206299
2023-05-25T17:11:15.977Z,24.26177979
2023-05-25T17:12:17.471Z,24.21142578
2023-05-25T17:13:18.357Z,24.16107178
2023-05-25T17:14:19.134Z,24.12078857
2023-05-25T17:15:19.948Z,24.06036377
2023-05-25T17:16:20.804Z,23.98986816
2023-05-25T17:17:22.490Z,23.91937256
2023-05-25T17:18:23.161Z,23.85894775
2023-05-25T17:19:23.887Z,23.80859375
2023-05-25T17:20:24.783Z,23.76831055
2023-05-25T17:21:26.318Z,23.74816895
2023-05-25T17:22:27.982Z,23.73809814
2023-05-25T17:23:28.958Z,23.70788574
2023-05-25T17:24:29.840Z,23.62731934
2023-05-25T17:25:30.647Z,23.56689453
2023-05-25T17:26:31.354Z,23.51654053
2023-05-25T17:27:32.212Z,23.41583252
2023-05-25T17:28:32.998Z,23.34533691
2023-05-25T17:29:34.404Z,23.2244873
2023-05-25T17:30:35.243Z,23.1439209
2023-05-25T17:31:36.792Z,23.06335449
2023-05-25T17:32:38.482Z,22.88208008
2023-05-25T17:34:09.579Z,22.79144287
2023-05-25T17:35:10.280Z,22.75115967
2023-05-25T17:36:11.100Z,22.69073486
2023-05-25T17:37:11.834Z,22.63031006
2023-05-25T17:38:43.781Z,22.45910645
2023-05-25T17:40:14.977Z,22.37854004
2023-05-25T17:41:16.432Z,22.30804443
2023-05-25T17:42:17.228Z,22.22747803
2023-05-25T17:43:18.004Z,22.13684082
2023-05-25T17:44:19.524Z,22.07641602
2023-05-25T17:45:20.425Z,21.98577881
2023-05-25T17:46:21.271Z,21.925354
2023-05-25T17:47:23.489Z,21.8649292
2023-05-25T17:48:24.332Z,21.77429199
2023-05-25T17:49:25.220Z,21.70379639
2023-05-25T17:50:26.142Z,21.61315918
2023-05-25T17:51:27.456Z,21.55273438
2023-05-25T17:52:28.196Z,21.51245117
2023-05-25T17:53:28.948Z,21.40167236
2023-05-25T17:54:29.678Z,21.31103516
2023-05-25T17:55:30.562Z,21.26068115
2023-05-25T17:56:31.467Z,21.18011475
2023-05-25T17:57:32.360Z,21.10961914
2023-05-25T17:58:33.229Z,21.07940674
2023-05-25T17:59:34.910Z,20.99884033
2023-05-25T18:00:35.844Z,20.93841553
2023-05-25T18:01:38.720Z,20.82763672
2023-05-25T18:03:10.659Z,20.80749512
2023-05-25T18:04:11.605Z,20.77728271
2023-05-25T18:05:12.369Z,20.72692871
2023-05-25T18:06:13.887Z,20.68664551
2023-05-25T18:07:14.603Z,20.6362915
2023-05-25T18:08:16.405Z,20.5960083
2023-05-25T18:09:17.291Z,20.5355835
2023-05-25T18:10:18.311Z,20.5255127
2023-05-25T18:11:20.052Z,20.49530029
2023-05-25T18:12:21.494Z,20.47515869
2023-05-25T18:13:22.314Z,20.44494629
2023-05-25T18:14:23.133Z,20.42480469
2023-05-25T18:15:24.905Z,20.41473389
2023-05-25T18:16:25.802Z,20.37445068
2023-05-25T18:17:27.499Z,20.37445068
2023-05-25T18:18:28.291Z,20.35430908
2023-05-25T18:19:29.071Z,20.33416748
2023-05-25T18:20:29.917Z,20.30395508
2023-05-25T18:21:31.511Z,20.27374268
2023-05-25T18:22:32.352Z,20.26367188
2023-05-25T18:23:34.053Z,20.26367188
2023-05-25T18:24:35.492Z,20.22338867
2023-05-25T18:25:36.298Z,20.23345947
2023-05-25T18:26:37.093Z,20.20324707
2023-05-25T18:28:08.910Z,20.19317627
2023-05-25T18:29:10.521Z,20.16296387
2023-05-25T18:30:11.425Z,20.15289307
2023-05-25T18:31:12.298Z,20.13275146
2023-05-25T18:32:13.983Z,20.13275146
2023-05-25T18:33:14.980Z,20.12268066
2023-05-25T18:34:16.490Z,20.12268066
2023-05-25T18:35:17.344Z,20.12268066
2023-05-25T18:36:18.130Z,20.12268066
2023-05-25T18:37:19.530Z,20.12268066
2023-05-25T18:38:20.429Z,20.10253906
2023-05-25T18:39:21.276Z,20.08239746
2023-05-25T18:40:22.253Z,20.05218506
2023-05-25T18:41:23.990Z,20.04211426
2023-05-25T18:42:25.532Z,20.02197266
2023-05-25T18:43:26.331Z,20.01190186
2023-05-25T18:44:27.208Z,19.98168945
2023-05-25T18:45:28.995Z,19.95147705
2023-05-25T18:46:29.931Z,19.94140625
2023-05-25T18:47:31.545Z,19.90112305
2023-05-25T18:48:32.330Z,19.87091064
2023-05-25T18:49:33.313Z,19.83062744
2023-05-25T18:50:34.248Z,19.80041504
2023-05-25T18:51:36.071Z,19.76013184
2023-05-25T18:52:36.926Z,19.69970703
2023-05-25T18:54:08.653Z,19.69970703
2023-05-25T18:55:09.609Z,19.66949463
2023-05-25T18:56:10.619Z,19.64935303
2023-05-25T18:57:11.597Z,19.60906982
2023-05-25T18:58:12.511Z,19.60906982
2023-05-25T18:59:14.491Z,19.59899902
2023-05-25T19:00:15.278Z,19.59899902
2023-05-25T19:01:16.204Z,19.59899902
2023-05-25T19:02:18.283Z,19.57885742
2023-05-25T19:03:20.236Z,19.56878662
2023-05-25T19:04:21.074Z,19.51843262
2023-05-25T19:05:22.344Z,19.49829102
2023-05-25T19:06:23.566Z,19.46807861
2023-05-25T19:07:24.557Z,19.45800781
2023-05-25T19:08:25.489Z,19.44793701
2023-05-25T19:09:26.261Z,19.44793701
2023-05-25T19:10:27.306Z,19.44793701
2023-05-25T19:11:28.515Z,19.42779541
2023-05-25T19:12:30.130Z,19.42779541
2023-05-25T19:13:31.246Z,19.38751221
2023-05-25T19:14:32.200Z,19.37744141
2023-05-25T19:15:34.039Z,19.347229
2023-05-25T19:16:34.974Z,19.3371582
2023-05-25T19:17:36.496Z,19.3170166
2023-05-25T19:19:08.429Z,19.3371582
2023-05-25T19:20:09.423Z,19.3170166
2023-05-25T19:21:10.370Z,19.3069458
2023-05-25T19:22:12.016Z,19.3069458
2023-05-25T19:23:14.003Z,19.3371582
2023-05-25T19:24:14.969Z,19.3371582
2023-05-25T19:25:15.949Z,19.347229
2023-05-25T19:26:16.814Z,19.37744141
2023-05-25T19:27:18.527Z,19.38751221
2023-05-25T19:28:19.472Z,19.37744141
2023-05-25T19:29:21.144Z,19.37744141
2023-05-25T19:30:22.114Z,19.37744141
2023-05-25T19:31:22.950Z,19.347229
2023-05-25T19:32:24.729Z,19.3371582
2023-05-25T19:33:26.533Z,19.3170166
2023-05-25T19:34:27.643Z,19.3069458
2023-05-25T19:35:28.822Z,19.296875
2023-05-25T19:36:29.868Z,19.2767334
2023-05-25T19:37:31.471Z,19.2666626
2023-05-25T19:38:41.125Z,19.246521
2023-05-25T19:39:33.215Z,19.2364502
2023-05-25T19:40:34.130Z,19.22637939
2023-05-25T19:41:35.046Z,19.19616699
2023-05-25T19:42:36.554Z,19.14581299
2023-05-25T19:44:07.695Z,19.12567139
2023-05-25T19:45:09.537Z,19.08538818
2023-05-25T19:46:10.635Z,19.06524658
2023-05-25T19:47:12.652Z,19.05517578
2023-05-25T19:48:13.933Z,19.04510498
2023-05-25T19:49:14.857Z,19.04510498
2023-05-25T19:50:15.822Z,19.05517578
2023-05-25T19:51:16.713Z,19.02496338
2023-05-25T19:52:18.595Z,19.01489258
2023-05-25T19:53:19.597Z,18.99475098
2023-05-25T19:54:20.493Z,18.97460938
2023-05-25T19:55:22.026Z,18.96453857
2023-05-25T19:56:22.932Z,18.94439697
2023-05-25T19:57:23.987Z,18.91418457
2023-05-25T19:58:25.831Z,18.90411377
2023-05-25T19:59:26.906Z,18.87390137
2023-05-25T20:00:27.779Z,18.87390137
2023-05-25T20:01:28.856Z,18.86383057
2023-05-25T20:02:30.632Z,18.86383057
2023-05-25T20:03:31.901Z,18.84368896
2023-05-25T20:04:33.541Z,18.84368896
2023-05-25T20:05:34.332Z,18.86383057
2023-05-25T20:06:35.296Z,18.83361816
2023-05-25T20:07:37.052Z,18.84368896
2023-05-25T20:09:08.651Z,18.83361816
2023-05-25T20:10:09.671Z,18.82354736
2023-05-25T20:11:10.520Z,18.82354736
2023-05-25T20:12:12.048Z,18.78326416
2023-05-25T20:13:13.570Z,18.76312256
2023-05-25T20:14:15.044Z,18.74298096
2023-05-25T20:15:16.153Z,18.72283936
2023-05-25T20:16:18.058Z,18.71276855
2023-05-25T20:17:18.954Z,18.69262695
2023-05-25T20:18:20.034Z,18.66241455
2023-05-25T20:19:22.215Z,18.65234375
2023-05-25T20:20:22.266Z,18.65234375
2023-05-25T20:21:23.198Z,18.64227295
2023-05-25T20:22:25.013Z,18.64227295
2023-05-25T20:23:25.904Z,18.64227295
2023-05-25T20:24:27.150Z,18.64227295
2023-05-25T20:25:28.130Z,18.64227295
2023-05-25T20:26:29.137Z,18.60198975
2023-05-25T20:27:31.066Z,18.59191895
2023-05-25T20:28:31.887Z,18.57177734
2023-05-25T20:29:32.745Z,18.54156494
2023-05-25T20:30:33.695Z,18.53149414
2023-05-25T20:31:34.845Z,18.51135254
2023-05-25T20:32:36.620Z,18.47106934
2023-05-25T20:34:08.504Z,18.46099854
2023-05-25T20:35:09.527Z,18.42071533
2023-05-25T20:36:10.484Z,18.38043213
2023-05-25T20:37:11.650Z,18.35021973
2023-05-25T20:38:13.916Z,18.34014893
2023-05-25T20:39:14.670Z,18.34014893
2023-05-25T20:40:15.540Z,18.34014893
2023-05-25T20:41:16.443Z,18.35021973
2023-05-25T20:42:18.078Z,18.36029053
2023-05-25T20:43:19.149Z,18.38043213
2023-05-25T20:44:20.485Z,18.39050293
2023-05-25T20:45:21.514Z,18.41064453
2023-05-25T20:46:23.046Z,18.46099854
2023-05-25T20:47:24.910Z,18.46099854
2023-05-25T20:48:26.563Z,18.49121094
2023-05-25T20:49:27.453Z,18.51135254
2023-05-25T20:50:28.303Z,18.51135254
2023-05-25T20:51:29.374Z,18.54156494
2023-05-25T20:52:31.031Z,18.56170654
2023-05-25T20:53:31.886Z,18.59191895
2023-05-25T20:54:33.540Z,18.59191895
2023-05-25T20:55:34.320Z,18.59191895
2023-05-25T20:56:35.504Z,18.59191895
2023-05-25T20:58:07.002Z,18.59191895
2023-05-25T20:59:08.580Z,18.60198975
2023-05-25T21:00:09.474Z,18.60198975
2023-05-25T21:01:11.122Z,18.60198975
2023-05-25T21:02:12.105Z,18.62213135
2023-05-25T21:03:14.219Z,18.62213135
2023-05-25T21:04:15.119Z,18.62213135
2023-05-25T21:05:16.577Z,18.60198975
2023-05-25T21:06:17.474Z,18.59191895
2023-05-25T21:07:19.620Z,18.56170654
2023-05-25T21:08:20.624Z,18.54156494
2023-05-25T21:09:21.490Z,18.56170654
2023-05-25T21:10:22.305Z,18.56170654
2023-05-25T21:11:23.864Z,18.54156494
2023-05-25T21:12:24.634Z,18.56170654
2023-05-25T21:13:26.483Z,18.56170654
2023-05-25T21:14:27.654Z,18.57177734
2023-05-25T21:15:29.096Z,18.57177734
2023-05-25T21:16:29.991Z,18.59191895
2023-05-25T21:17:31.486Z,18.57177734
2023-05-25T21:18:32.418Z,18.56170654
2023-05-25T21:19:34.096Z,18.54156494
2023-05-25T21:20:35.131Z,18.46099854
2023-05-25T21:22:06.791Z,18.42071533
2023-05-25T21:23:08.616Z,18.42071533
2023-05-25T21:24:09.735Z,18.41064453
2023-05-25T21:25:10.758Z,18.39050293
2023-05-25T21:26:11.600Z,18.36029053
2023-05-25T21:27:12.374Z,18.34014893
2023-05-25T21:28:14.038Z,18.34014893
2023-05-25T21:29:15.037Z,18.32000732
2023-05-25T21:30:16.021Z,18.30993652
2023-05-25T21:31:17.143Z,18.30993652
2023-05-25T21:32:18.549Z,18.34014893
2023-05-25T21:33:20.034Z,18.32000732
2023-05-25T21:34:21.077Z,18.30993652
2023-05-25T21:35:22.097Z,18.28979492
2023-05-25T21:36:23.103Z,18.28979492
2023-05-25T21:37:23.964Z,18.28979492
2023-05-25T21:38:25.443Z,18.32000732
2023-05-25T21:39:26.405Z,18.30993652
2023-05-25T21:40:27.291Z,18.28979492
2023-05-25T21:41:28.277Z,18.30993652
2023-05-25T21:42:29.122Z,18.30993652
2023-05-25T21:43:30.990Z,18.28979492
2023-05-25T21:44:31.809Z,18.28979492
2023-05-25T21:45:33.372Z,18.30993652
2023-05-25T21:46:35.560Z,18.30993652
2023-05-25T21:48:06.947Z,18.30993652
2023-05-25T21:49:07.741Z,18.32000732
2023-05-25T21:50:08.714Z,18.32000732
2023-05-25T21:51:09.668Z,18.32000732
2023-05-25T21:52:10.564Z,18.32000732
2023-05-25T21:53:12.698Z,18.30993652
2023-05-25T21:54:13.764Z,18.28979492
2023-05-25T21:55:14.804Z,18.25958252
2023-05-25T21:56:15.629Z,18.24951172
2023-05-25T21:57:17.038Z,18.24951172
2023-05-25T21:58:18.127Z,18.24951172
2023-05-25T21:59:19.600Z,18.22937012
2023-05-25T22:00:20.453Z,18.19915771
2023-05-25T22:01:21.372Z,18.19915771
2023-05-25T22:02:23.239Z,18.18908691
2023-05-25T22:03:24.669Z,18.15887451
2023-05-25T22:04:25.547Z,18.15887451
2023-05-25T22:05:26.580Z,18.12866211
2023-05-25T22:06:27.461Z,18.12866211
2023-05-25T22:07:28.459Z,18.09844971
2023-05-25T22:08:29.597Z,18.10852051
2023-05-25T22:09:30.797Z,18.08837891
2023-05-25T22:10:31.788Z,18.0380249
2023-05-25T22:11:32.672Z,17.9876709
2023-05-25T22:12:33.698Z,17.86682129
2023-05-25T22:14:06.022Z,17.86682129
2023-05-25T22:15:06.976Z,17.80639648
2023-05-25T22:16:08.669Z,17.75604248
2023-05-25T22:17:10.630Z,17.72583008
2023-05-25T22:18:11.597Z,17.72583008
2023-05-25T22:19:12.462Z,17.69561768
2023-05-25T22:20:13.942Z,17.67547607
2023-05-25T22:21:14.888Z,17.67547607
2023-05-25T22:22:16.610Z,17.69561768
2023-05-25T22:23:18.018Z,17.70568848
2023-05-25T22:24:18.861Z,17.70568848
2023-05-25T22:25:19.813Z,17.72583008
2023-05-25T22:26:20.746Z,17.72583008
2023-05-25T22:27:21.665Z,17.73590088
2023-05-25T22:28:22.512Z,17.76611328
2023-05-25T22:29:23.897Z,17.75604248
2023-05-25T22:30:25.027Z,17.75604248
2023-05-25T22:31:26.043Z,17.75604248
2023-05-25T22:32:27.201Z,17.75604248
2023-05-25T22:33:30.028Z,17.73590088
2023-05-25T22:34:30.990Z,17.73590088
2023-05-25T22:35:31.944Z,17.72583008
2023-05-25T22:36:33.040Z,17.72583008
2023-05-25T22:37:34.076Z,17.67547607
2023-05-25T22:39:06.054Z,17.65533447
2023-05-25T22:40:06.984Z,17.65533447
2023-05-25T22:41:07.855Z,17.61505127
2023-05-25T22:42:08.789Z,17.60498047
2023-05-25T22:43:10.621Z,17.60498047
2023-05-25T22:44:12.052Z,17.60498047
2023-05-25T22:45:13.588Z,17.57476807
2023-05-25T22:46:14.397Z,17.58483887
2023-05-25T22:47:16.096Z,17.58483887
2023-05-25T22:48:18.067Z,17.58483887
2023-05-25T22:49:19.066Z,17.57476807
2023-05-25T22:50:20.030Z,17.57476807
2023-05-25T22:51:20.952Z,17.55462646
2023-05-25T22:52:21.880Z,17.55462646
2023-05-25T22:53:23.570Z,17.55462646
2023-05-25T22:54:24.465Z,17.55462646
2023-05-25T22:55:25.438Z,17.57476807
2023-05-25T22:56:26.351Z,17.58483887
2023-05-25T22:57:27.171Z,17.60498047
2023-05-25T22:58:28.148Z,17.57476807
2023-05-25T22:59:30.680Z,17.58483887
2023-05-25T23:00:31.725Z,17.60498047
2023-05-25T23:01:32.762Z,17.58483887
2023-05-25T23:02:33.587Z,17.61505127
2023-05-25T23:04:06.264Z,17.60498047
2023-05-25T23:05:07.110Z,17.58483887
2023-05-25T23:06:08.058Z,17.58483887
2023-05-25T23:07:08.983Z,17.60498047
2023-05-25T23:08:10.025Z,17.58483887
2023-05-25T23:09:10.987Z,17.58483887
2023-05-25T23:10:11.951Z,17.55462646
2023-05-25T23:11:43.756Z,17.55462646
2023-05-25T23:13:16.023Z,17.53448486
2023-05-25T23:14:17.569Z,17.51434326
2023-05-25T23:15:18.625Z,17.51434326
2023-05-25T23:16:19.588Z,17.53448486
2023-05-25T23:17:21.643Z,17.51434326
2023-05-25T23:18:22.495Z,17.47406006
2023-05-25T23:19:23.596Z,17.47406006
2023-05-25T23:20:24.579Z,17.47406006
2023-05-25T23:21:25.546Z,17.47406006
2023-05-25T23:22:26.567Z,17.47406006
2023-05-25T23:23:28.110Z,17.47406006
2023-05-25T23:24:29.970Z,17.46398926
2023-05-25T23:25:30.823Z,17.42370605
2023-05-25T23:26:31.769Z,17.36328125
2023-05-25T23:27:33.569Z,17.28271484
2023-05-25T23:29:06.120Z,17.27264404
2023-05-25T23:30:06.993Z,17.28271484
2023-05-25T23:31:07.774Z,17.25250244
2023-05-25T23:32:08.729Z,17.22229004
2023-05-25T23:33:10.694Z,17.21221924
2023-05-25T23:34:12.069Z,17.21221924
2023-05-25T23:35:12.956Z,17.20214844
2023-05-25T23:36:14.010Z,17.18200684
2023-05-25T23:37:15.653Z,17.17193604
2023-05-25T23:38:16.650Z,17.17193604
2023-05-25T23:39:17.708Z,17.14172363
2023-05-25T23:40:18.693Z,17.12158203
2023-05-25T23:41:19.506Z,17.12158203
2023-05-25T23:42:20.357Z,17.14172363
2023-05-25T23:43:21.269Z,17.15179443
2023-05-25T23:44:23.081Z,17.12158203
2023-05-25T23:45:24.075Z,17.12158203
2023-05-25T23:46:25.198Z,17.09136963
2023-05-25T23:47:26.572Z,17.07122803
2023-05-25T23:48:27.464Z,17.06115723
2023-05-25T23:49:29.109Z,17.07122803
2023-05-25T23:50:30.111Z,17.07122803
2023-05-25T23:51:31.092Z,17.07122803
2023-05-25T23:52:31.984Z,17.09136963
2023-05-25T23:53:32.822Z,17.09136963
2023-05-25T23:55:05.221Z,17.09136963
2023-05-25T23:56:06.239Z,17.07122803
2023-05-25T23:57:07.185Z,17.03094482
2023-05-25T23:58:08.178Z,17.00073242
2023-05-25T23:59:09.574Z,17.00073242
